LIPZ/VCE METAR and TAF weather

Enter ICAO airport designator
Station Type Date Time Source
LIPZ METAR 2022/12/02 22:50 UTC NOAA

LIPZ 022250Z 04010KT 9999 SCT030 BKN040 06/04 Q1019 NOSIG


Station Type Date Time Source
LIPZ Decoded METAR 2022/12/02 22:50 UTC NOAA

Venezia / Tessera, Italy (LIPZ) 45-30N 012-20E 6M
Dec 02, 2022 - 05:50 PM EST / 2022.12.02 2250 UTC
Wind: from the NE (040 degrees) at 12 MPH (10 KT):0
Visibility: greater than 7 mile(s):0
Sky conditions: mostly cloudy
Temperature: 42 F (6 C)
Dew Point: 39 F (4 C)
Relative Humidity: 86%
Pressure (altimeter): 30.09 in. Hg (1019 hPa)
ob: LIPZ 022250Z 04010KT 9999 SCT030 BKN040 06/04 Q1019 NOSIG
cycle: 23

Station Type Date Time Source
LIPZ TAF 2022/12/02 18:21 UTC NOAA

TAF LIPZ 021700Z 0218/0324 04010KT 6000 FEW015 SCT030
TEMPO 0218/0221 RA
TEMPO 0306/0315 RA
TEMPO 0320/0324 SHRA

Example: see airport list